East Highgate, Vermont
Current Conditions -  °F | °C
As of 12:55 PM on Monday 24 Nov 2014 (Local Time) from KFSO Reporting Station
Clear Clear  
Wind Chill: 65°   Ceiling: Unl
Heat Index: 65°   Visibility: 10mi
Dew Point: 56°   Wind: 18mph
Humidity: 71%   Direction: 170°S
Pressure: 29.37"   Gusts: 31mph
Location:  44.958°N, 72.9958°W
Report Text: KFSO 241755Z AUTO 17016G27KT 150V210 10SM CLR 19/13 A2937 RMK AO2 T01850132 10185 20080
Loading
Personal Weather Stations






























Interactive Weather Map New forecast layout! Learn more

10-Day Weather Forecast

Advertisements
Track Severe Weather on mobile